Time;durP1;ratioP1;P1;durP2;ratioP2;P2;SDS_P1;SDS_P2;PMS_P1;PMS_P2;Temp;Humidity;BMP_temperature;BMP_pressure;BME280_temperature;BME280_humidity;BME280_pressure;Samples;Min_cycle;Max_cycle;Signal;HPM_P1;HPM_P2
2022/05/30 00:01:10;;;;;;;4.35;1.10;;;8.60;99.90;;;;;;5049116;28;20045;-68
2022/05/30 00:03:36;;;;;;;4.38;0.70;;;8.60;99.90;;;;;;5048529;28;20588;-68
2022/05/30 00:06:06;;;;;;;3.50;0.90;;;8.50;99.90;;;;;;5051610;28;20074;-68
2022/05/30 00:08:31;;;;;;;2.30;1.02;;;8.50;99.90;;;;;;5056088;28;20049;-68
2022/05/30 00:11:04;;;;;;;3.70;1.13;;;8.50;99.90;;;;;;5051766;28;20086;-68
2022/05/30 00:13:30;;;;;;;8.93;1.13;;;8.50;99.90;;;;;;5054734;28;20052;-68
2022/05/30 00:15:56;;;;;;;3.15;0.73;;;8.40;99.90;;;;;;5052418;28;20048;-68
2022/05/30 00:18:21;;;;;;;1.35;0.82;;;8.40;99.90;;;;;;5055549;28;20078;-68
2022/05/30 00:20:47;;;;;;;3.40;1.20;;;8.30;99.90;;;;;;5048503;28;20138;-68
2022/05/30 00:23:13;;;;;;;1.83;0.88;;;8.30;99.90;;;;;;5058855;28;20040;-68
2022/05/30 00:25:43;;;;;;;3.53;1.02;;;8.30;99.90;;;;;;5050472;28;20543;-68
2022/05/30 00:28:08;;;;;;;2.92;0.90;;;8.30;99.90;;;;;;5050661;28;20040;-68
2022/05/30 00:30:34;;;;;;;1.83;0.57;;;8.20;99.90;;;;;;5051275;28;20051;-68
2022/05/30 00:33:00;;;;;;;2.30;0.90;;;8.20;99.90;;;;;;5052567;28;20143;-68
2022/05/30 00:35:26;;;;;;;2.40;0.75;;;8.10;99.90;;;;;;5052803;28;20092;-68
2022/05/30 00:37:52;;;;;;;18.10;0.90;;;8.20;99.90;;;;;;5051739;28;20520;-68
2022/05/30 00:40:19;;;;;;;3.92;0.95;;;8.10;99.90;;;;;;5047148;28;20044;-67
2022/05/30 00:42:44;;;;;;;2.47;0.75;;;8.20;99.90;;;;;;5049062;28;20053;-68
2022/05/30 00:45:10;;;;;;;2.78;0.90;;;7.90;99.90;;;;;;5054552;28;20512;-68
2022/05/30 00:47:37;;;;;;;2.67;0.68;;;8.20;99.90;;;;;;5049842;28;20342;-68
2022/05/30 00:50:03;;;;;;;3.90;0.60;;;8.20;99.90;;;;;;5050376;28;20497;-68
2022/05/30 00:52:36;;;;;;;2.08;0.55;;;8.20;99.90;;;;;;5052135;28;20131;-68
2022/05/30 00:55:14;;;;;;;2.80;0.88;;;8.20;99.90;;;;;;5050827;28;20520;-68
2022/05/30 00:57:42;;;;;;;3.20;0.98;;;8.20;99.90;;;;;;5051885;28;20041;-68
2022/05/30 01:00:19;;;;;;;3.30;0.50;;;8.10;99.90;;;;;;5049950;28;20047;-68
2022/05/30 01:02:45;;;;;;;3.65;0.98;;;8.20;99.90;;;;;;5055140;28;20052;-68
2022/05/30 01:08:01;;;;;;;1.75;1.23;;;8.20;99.90;;;;;;5053114;28;20045;-68
2022/05/30 01:10:27;;;;;;;2.38;0.75;;;8.20;99.90;;;;;;5052112;28;20539;-68
2022/05/30 01:12:56;;;;;;;1.30;0.80;;;8.10;99.90;;;;;;5052791;28;20041;-68
2022/05/30 01:15:30;;;;;;;1.58;0.60;;;8.20;99.90;;;;;;5048267;28;20053;-68
2022/05/30 01:18:03;;;;;;;1.88;0.88;;;8.20;99.90;;;;;;5060658;28;20119;-68
2022/05/30 01:21:02;;;;;;;2.28;0.98;;;8.20;99.90;;;;;;5051739;28;20513;-68
2022/05/30 01:23:41;;;;;;;1.20;0.90;;;8.20;99.90;;;;;;5050729;28;20067;-68
2022/05/30 01:26:26;;;;;;;4.93;0.90;;;8.10;99.90;;;;;;5052101;28;20445;-68
2022/05/30 01:28:55;;;;;;;3.03;0.98;;;8.10;99.90;;;;;;5050299;28;20579;-68
2022/05/30 01:31:22;;;;;;;2.65;0.80;;;8.10;99.90;;;;;;5056421;28;20073;-68
2022/05/30 01:33:47;;;;;;;2.15;0.85;;;8.10;99.90;;;;;;5053381;28;20128;-68
2022/05/30 01:36:14;;;;;;;3.17;0.95;;;8.10;99.90;;;;;;5049760;28;20136;-68
2022/05/30 01:38:39;;;;;;;0.70;0.65;;;8.10;99.90;;;;;;5050259;28;20080;-68
2022/05/30 01:41:05;;;;;;;2.17;0.65;;;8.10;99.90;;;;;;5052441;28;20463;-68
2022/05/30 01:43:32;;;;;;;1.27;0.55;;;8.10;99.90;;;;;;5048039;28;20037;-68
2022/05/30 01:46:04;;;;;;;3.25;0.80;;;8.10;99.90;;;;;;5051959;28;20646;-68
2022/05/30 01:48:30;;;;;;;1.48;0.55;;;8.10;99.90;;;;;;5053130;28;20045;-68
2022/05/30 01:50:57;;;;;;;2.97;1.00;;;8.00;99.90;;;;;;5054156;28;20925;-68
2022/05/30 01:53:23;;;;;;;1.15;0.80;;;8.10;99.90;;;;;;5052266;28;20037;-68
2022/05/30 01:55:48;;;;;;;2.35;0.60;;;8.10;99.90;;;;;;5053246;28;20443;-68
2022/05/30 01:58:14;;;;;;;3.67;0.90;;;8.00;99.90;;;;;;5054605;28;20064;-68
2022/05/30 02:00:39;;;;;;;6.07;0.77;;;8.00;99.90;;;;;;5052074;28;20053;-68
2022/05/30 02:03:05;;;;;;;1.13;0.47;;;8.00;99.90;;;;;;5050823;28;20413;-68
2022/05/30 02:05:33;;;;;;;2.03;0.80;;;8.00;99.90;;;;;;5053314;28;20036;-68
2022/05/30 02:07:58;;;;;;;3.63;0.85;;;8.10;99.90;;;;;;5052540;28;20529;-68
2022/05/30 02:10:24;;;;;;;1.80;0.80;;;8.00;99.90;;;;;;5053672;28;20087;-68
2022/05/30 02:12:50;;;;;;;2.72;0.82;;;8.00;99.90;;;;;;5050520;28;20061;-68
2022/05/30 02:15:16;;;;;;;2.00;0.65;;;8.00;99.90;;;;;;5057351;28;20508;-68
2022/05/30 02:17:42;;;;;;;1.02;0.70;;;7.90;99.90;;;;;;5052729;28;20056;-68
2022/05/30 02:20:08;;;;;;;2.42;0.82;;;7.90;99.90;;;;;;5054140;28;20045;-68
2022/05/30 02:22:33;;;;;;;2.60;0.80;;;7.90;99.90;;;;;;5056252;28;20037;-68
2022/05/30 02:25:00;;;;;;;2.90;0.90;;;7.90;99.90;;;;;;5053597;28;20519;-68
2022/05/30 02:27:25;;;;;;;4.55;0.90;;;7.90;99.90;;;;;;5054826;28;20037;-68
2022/05/30 02:29:54;;;;;;;1.83;0.75;;;7.90;99.90;;;;;;5052435;28;20045;-68
2022/05/30 02:32:20;;;;;;;4.95;1.55;;;7.90;99.90;;;;;;5054791;28;20106;-68
2022/05/30 02:37:31;;;;;;;2.63;0.65;;;7.90;99.90;;;;;;5051863;28;20045;-68
2022/05/30 02:39:57;;;;;;;2.60;0.80;;;7.90;99.90;;;;;;5053060;28;20124;-68
2022/05/30 02:42:22;;;;;;;2.38;1.00;;;7.90;99.90;;;;;;5051435;28;20136;-68
2022/05/30 02:44:49;;;;;;;1.23;0.82;;;8.00;99.90;;;;;;5048326;28;20052;-68
2022/05/30 02:47:16;;;;;;;3.50;1.40;;;8.00;99.90;;;;;;5053260;28;20053;-68
2022/05/30 02:49:42;;;;;;;1.45;0.93;;;8.00;99.90;;;;;;5054060;28;20083;-68
2022/05/30 02:52:07;;;;;;;2.90;1.05;;;8.00;99.90;;;;;;5050219;28;20068;-68
2022/05/30 02:54:33;;;;;;;4.45;1.00;;;8.00;99.90;;;;;;5056361;28;20094;-67
2022/05/30 02:56:59;;;;;;;4.03;1.00;;;8.00;99.90;;;;;;5051051;28;20750;-67
2022/05/30 02:59:26;;;;;;;3.88;1.27;;;8.00;99.90;;;;;;5054872;28;20045;-67
2022/05/30 03:01:52;;;;;;;3.58;1.33;;;8.00;99.90;;;;;;5053909;28;20041;-68
2022/05/30 03:04:19;;;;;;;2.70;1.02;;;8.00;99.90;;;;;;5050790;28;20049;-68
2022/05/30 03:06:46;;;;;;;4.45;1.00;;;8.00;99.90;;;;;;5051508;28;20136;-68
2022/05/30 03:09:13;;;;;;;3.80;1.20;;;8.10;99.90;;;;;;5052611;28;20032;-68
2022/05/30 03:11:39;;;;;;;2.22;1.65;;;8.10;99.90;;;;;;5049972;28;20103;-67
2022/05/30 03:14:04;;;;;;;4.50;1.23;;;8.00;99.90;;;;;;5050248;28;20477;-68
2022/05/30 03:16:31;;;;;;;4.53;1.52;;;8.00;99.90;;;;;;5052206;28;20049;-68
2022/05/30 03:18:57;;;;;;;2.72;1.25;;;8.00;99.90;;;;;;5051348;28;20102;-68
2022/05/30 03:21:22;;;;;;;2.88;1.33;;;8.00;99.90;;;;;;5051244;28;20036;-68
2022/05/30 03:23:48;;;;;;;1.95;1.10;;;8.00;99.90;;;;;;5051353;28;20076;-68
2022/05/30 03:26:16;;;;;;;4.38;1.30;;;8.00;99.90;;;;;;5054751;28;20029;-68
2022/05/30 03:28:42;;;;;;;2.63;1.42;;;8.10;99.90;;;;;;5049088;28;20048;-68
2022/05/30 03:31:08;;;;;;;2.10;1.15;;;8.00;99.90;;;;;;5054232;28;20124;-68
2022/05/30 03:33:35;;;;;;;5.07;2.00;;;8.00;99.90;;;;;;5050975;28;20503;-68
2022/05/30 03:36:01;;;;;;;2.30;1.20;;;8.00;99.90;;;;;;5050220;28;20123;-68
2022/05/30 03:38:27;;;;;;;5.13;1.20;;;8.00;99.90;;;;;;5051260;28;20127;-68
2022/05/30 03:40:52;;;;;;;3.13;1.80;;;8.00;99.90;;;;;;5051969;28;20056;-68
2022/05/30 03:43:18;;;;;;;2.60;1.48;;;8.00;99.90;;;;;;5050503;28;20484;-68
2022/05/30 03:45:44;;;;;;;3.50;1.50;;;8.10;99.90;;;;;;5052627;28;20037;-68
2022/05/30 03:48:12;;;;;;;2.95;1.48;;;8.00;99.90;;;;;;5036939;28;20048;-68
2022/05/30 03:50:40;;;;;;;3.85;1.42;;;8.00;99.90;;;;;;5044535;28;20043;-68
2022/05/30 03:53:07;;;;;;;2.20;1.63;;;8.00;99.90;;;;;;5050901;28;20841;-68
2022/05/30 03:55:35;;;;;;;4.30;1.58;;;8.00;99.90;;;;;;5047634;28;20045;-68
2022/05/30 03:58:05;;;;;;;4.05;1.67;;;8.10;99.90;;;;;;5050510;28;20049;-68
2022/05/30 04:00:32;;;;;;;5.78;1.58;;;8.10;99.90;;;;;;5054081;28;20049;-68
2022/05/30 04:02:59;;;;;;;3.38;1.40;;;8.10;99.90;;;;;;5049516;28;20116;-68
2022/05/30 04:05:25;;;;;;;5.68;1.40;;;8.10;99.90;;;;;;5051634;28;20069;-68
2022/05/30 04:07:51;;;;;;;5.15;1.70;;;8.10;99.90;;;;;;5051091;28;20098;-68
2022/05/30 04:10:17;;;;;;;2.30;1.50;;;8.10;99.90;;;;;;5049225;28;20041;-68
2022/05/30 04:12:43;;;;;;;1.17;1.13;;;8.10;99.90;;;;;;5049194;28;20049;-68
2022/05/30 04:15:16;;;;;;;3.05;1.48;;;8.00;99.90;;;;;;5052470;28;20052;-68
2022/05/30 04:17:42;;;;;;;6.32;1.40;;;8.10;99.90;;;;;;5051627;28;20044;-68
2022/05/30 04:20:08;;;;;;;3.58;1.27;;;8.10;99.90;;;;;;5055907;28;20155;-68
2022/05/30 04:22:33;;;;;;;10.35;1.60;;;8.10;99.90;;;;;;5050418;28;20041;-68
2022/05/30 04:24:59;;;;;;;3.08;1.38;;;8.20;99.90;;;;;;5049480;28;20119;-68
2022/05/30 04:27:25;;;;;;;4.75;1.30;;;8.20;99.90;;;;;;5057694;28;20033;-68
2022/05/30 04:29:51;;;;;;;2.10;1.38;;;8.20;99.90;;;;;;5053254;28;20036;-68
2022/05/30 04:32:17;;;;;;;6.25;1.48;;;8.20;99.90;;;;;;5049587;28;20119;-68
2022/05/30 04:34:44;;;;;;;10.93;1.48;;;8.20;99.90;;;;;;5046145;28;20033;-68
2022/05/30 04:37:09;;;;;;;1.65;1.08;;;8.20;99.90;;;;;;5051362;28;20457;-68
2022/05/30 04:39:35;;;;;;;3.30;1.15;;;8.20;99.90;;;;;;5049366;28;20485;-68
2022/05/30 04:42:01;;;;;;;1.35;1.23;;;8.20;99.90;;;;;;5050522;28;20049;-68
2022/05/30 04:44:27;;;;;;;6.07;1.73;;;8.30;99.90;;;;;;5051060;28;20481;-68
2022/05/30 04:46:54;;;;;;;2.53;1.27;;;8.30;99.90;;;;;;5053115;28;20040;-68
2022/05/30 04:49:21;;;;;;;2.33;1.60;;;8.30;99.90;;;;;;5051202;28;20045;-68
2022/05/30 04:51:48;;;;;;;2.33;1.42;;;8.30;99.90;;;;;;5050849;28;20037;-68
2022/05/30 04:54:13;;;;;;;4.75;1.50;;;8.30;99.90;;;;;;5053947;28;20508;-68
2022/05/30 04:56:39;;;;;;;3.97;1.65;;;8.40;99.90;;;;;;5049290;28;20033;-68
2022/05/30 04:59:04;;;;;;;3.20;1.42;;;8.30;99.90;;;;;;5053925;28;20049;-68
2022/05/30 05:01:30;;;;;;;4.25;1.42;;;8.60;99.90;;;;;;5055622;28;20476;-68
2022/05/30 05:03:56;;;;;;;5.80;1.92;;;8.40;99.90;;;;;;5053904;28;20141;-68
2022/05/30 05:06:22;;;;;;;1.58;1.48;;;8.40;99.90;;;;;;5050820;28;20052;-68
2022/05/30 05:08:50;;;;;;;3.17;1.30;;;8.40;99.90;;;;;;5049308;28;20045;-68
2022/05/30 05:11:22;;;;;;;2.78;1.33;;;8.50;99.90;;;;;;5054454;28;20032;-68
2022/05/30 05:13:49;;;;;;;5.97;1.45;;;8.60;99.90;;;;;;5052394;28;20127;-68
2022/05/30 05:16:16;;;;;;;3.58;0.80;;;8.70;99.90;;;;;;5051754;28;20085;-68
2022/05/30 05:18:42;;;;;;;3.08;1.23;;;8.70;99.90;;;;;;5052526;28;20045;-68
2022/05/30 05:21:08;;;;;;;4.35;1.20;;;8.80;99.90;;;;;;5049989;28;20051;-68
2022/05/30 05:23:34;;;;;;;4.47;1.27;;;8.90;99.90;;;;;;5054890;28;20036;-68
2022/05/30 05:26:05;;;;;;;1.60;0.77;;;8.90;99.90;;;;;;5053958;28;20037;-68
2022/05/30 05:28:31;;;;;;;4.47;1.27;;;9.00;99.90;;;;;;5054518;28;20460;-68
2022/05/30 05:30:57;;;;;;;2.17;1.02;;;9.00;99.90;;;;;;5051448;28;20048;-68
2022/05/30 05:33:23;;;;;;;2.78;0.90;;;9.10;99.90;;;;;;5056173;28;20040;-68
2022/05/30 05:35:48;;;;;;;4.25;0.98;;;9.20;99.90;;;;;;5056392;28;20036;-68
2022/05/30 05:38:14;;;;;;;3.58;0.75;;;9.20;99.90;;;;;;5061068;28;20052;-68
2022/05/30 05:40:41;;;;;;;1.83;0.90;;;9.10;99.90;;;;;;5050786;28;20041;-68
2022/05/30 05:43:08;;;;;;;3.25;0.90;;;9.20;99.90;;;;;;5050066;28;20048;-68
2022/05/30 05:45:35;;;;;;;4.07;1.00;;;9.20;99.90;;;;;;5057093;28;20090;-68
2022/05/30 05:48:01;;;;;;;7.68;1.23;;;9.30;99.90;;;;;;5050085;28;20513;-67
2022/05/30 05:50:26;;;;;;;3.58;0.80;;;9.20;99.90;;;;;;5058674;28;20063;-67
2022/05/30 05:52:53;;;;;;;4.93;0.93;;;9.30;99.90;;;;;;5055243;28;20098;-67
2022/05/30 05:55:19;;;;;;;2.35;0.80;;;9.40;99.90;;;;;;5049685;28;20471;-68
2022/05/30 05:57:45;;;;;;;3.40;0.98;;;9.40;99.90;;;;;;5057379;28;20108;-68
2022/05/30 06:00:12;;;;;;;0.98;0.68;;;9.50;99.90;;;;;;5052010;28;20045;-68
2022/05/30 06:02:41;;;;;;;1.98;0.52;;;9.60;99.90;;;;;;5057178;28;20044;-68
2022/05/30 06:05:08;;;;;;;2.42;0.80;;;9.70;99.90;;;;;;5058974;28;20277;-68
2022/05/30 06:07:36;;;;;;;2.38;0.60;;;9.70;99.90;;;;;;5059333;28;20045;-68
2022/05/30 06:10:03;;;;;;;1.40;0.75;;;9.80;99.90;;;;;;5054408;28;20151;-68
2022/05/30 06:12:28;;;;;;;1.35;0.52;;;9.90;99.90;;;;;;5052794;28;20102;-68
2022/05/30 06:14:54;;;;;;;3.38;0.75;;;9.90;99.90;;;;;;5051793;28;20064;-68
2022/05/30 06:17:19;;;;;;;2.72;0.55;;;9.90;99.90;;;;;;5053285;28;20053;-68
2022/05/30 06:19:48;;;;;;;1.35;0.88;;;9.90;99.90;;;;;;5048194;28;20045;-68
2022/05/30 06:22:14;;;;;;;2.33;0.40;;;9.90;99.90;;;;;;5056404;28;20507;-68
2022/05/30 06:24:39;;;;;;;2.00;0.70;;;10.00;99.90;;;;;;5052964;28;20037;-68
2022/05/30 06:27:06;;;;;;;2.83;1.08;;;10.00;99.90;;;;;;5058270;28;20084;-68
2022/05/30 06:29:33;;;;;;;1.40;0.73;;;10.10;99.90;;;;;;5056395;28;20044;-68
2022/05/30 06:31:59;;;;;;;2.95;0.90;;;10.10;99.90;;;;;;5051326;28;20580;-68
2022/05/30 06:34:25;;;;;;;5.25;0.85;;;10.20;99.90;;;;;;5052322;28;20072;-68
2022/05/30 06:36:50;;;;;;;2.85;0.50;;;10.20;99.90;;;;;;5059401;28;20444;-68
2022/05/30 06:39:17;;;;;;;5.53;0.50;;;10.30;99.90;;;;;;5050205;28;20052;-67
2022/05/30 06:41:44;;;;;;;0.60;0.40;;;10.30;99.90;;;;;;5050140;28;20048;-68
2022/05/30 06:44:10;;;;;;;0.90;0.73;;;10.30;99.90;;;;;;5054258;28;20047;-68
2022/05/30 06:46:37;;;;;;;1.67;0.73;;;10.30;99.90;;;;;;5051672;28;20048;-67
2022/05/30 06:49:04;;;;;;;0.75;0.50;;;10.30;99.90;;;;;;5052211;28;20037;-68
2022/05/30 06:51:31;;;;;;;1.40;0.65;;;10.30;99.90;;;;;;5052309;28;20068;-67
2022/05/30 06:53:57;;;;;;;2.15;0.57;;;10.30;99.90;;;;;;5051869;28;20049;-67
2022/05/30 06:56:26;;;;;;;1.67;0.80;;;10.30;99.90;;;;;;5055545;28;20128;-67
2022/05/30 06:58:52;;;;;;;5.93;0.75;;;10.30;99.90;;;;;;5051735;28;20059;-67
2022/05/30 07:01:23;;;;;;;1.55;0.50;;;10.20;99.90;;;;;;5050659;28;20153;-68
2022/05/30 07:03:49;;;;;;;1.08;0.47;;;10.20;99.90;;;;;;5051591;28;20097;-67
2022/05/30 07:06:22;;;;;;;2.60;0.55;;;10.20;99.90;;;;;;5054835;28;20076;-67
2022/05/30 07:08:48;;;;;;;3.10;0.40;;;10.20;99.90;;;;;;5051060;28;20044;-67
2022/05/30 07:11:18;;;;;;;0.70;0.52;;;10.20;99.90;;;;;;5054230;28;20519;-67
2022/05/30 07:13:45;;;;;;;2.65;0.70;;;10.30;99.90;;;;;;5056916;28;20040;-66
2022/05/30 07:16:11;;;;;;;1.35;0.50;;;10.30;99.90;;;;;;5052891;28;20045;-67
2022/05/30 07:18:39;;;;;;;2.33;0.73;;;10.50;99.90;;;;;;5053121;28;20382;-67
2022/05/30 07:21:06;;;;;;;1.67;0.52;;;10.70;99.90;;;;;;5050495;28;20040;-67
2022/05/30 07:23:34;;;;;;;2.28;0.82;;;10.80;99.90;;;;;;5052633;28;20037;-67
2022/05/30 07:26:03;;;;;;;1.98;0.70;;;10.90;99.90;;;;;;5050767;28;20041;-67
2022/05/30 07:28:29;;;;;;;2.72;0.80;;;11.00;99.90;;;;;;5051663;28;20036;-67
2022/05/30 07:31:10;;;;;;;3.35;1.00;;;11.10;99.90;;;;;;5053827;28;20057;-67
2022/05/30 07:33:36;;;;;;;1.60;0.63;;;11.20;99.90;;;;;;5050334;28;20452;-67
2022/05/30 07:36:08;;;;;;;2.25;0.70;;;11.20;99.90;;;;;;5048454;28;20132;-67
2022/05/30 07:38:34;;;;;;;1.33;0.50;;;11.10;99.90;;;;;;5052075;28;20045;-67
2022/05/30 07:41:00;;;;;;;5.75;1.13;;;11.10;99.90;;;;;;5048590;28;20320;-67
2022/05/30 07:43:25;;;;;;;4.22;1.05;;;11.10;99.90;;;;;;5048784;28;20120;-67
2022/05/30 07:45:51;;;;;;;3.42;0.70;;;11.00;99.90;;;;;;5045517;28;20084;-67
2022/05/30 07:48:17;;;;;;;1.70;0.45;;;11.00;99.90;;;;;;5058341;28;20048;-67
2022/05/30 07:50:42;;;;;;;1.25;0.70;;;11.00;99.90;;;;;;5050752;28;20435;-67
2022/05/30 07:53:08;;;;;;;4.43;0.60;;;11.00;99.90;;;;;;5050344;28;20691;-67
2022/05/30 07:55:34;;;;;;;2.35;0.68;;;11.10;99.90;;;;;;5044844;28;20084;-67
2022/05/30 07:58:05;;;;;;;1.38;0.50;;;11.20;99.90;;;;;;5046463;28;20044;-67
2022/05/30 08:00:34;;;;;;;1.05;0.60;;;11.30;99.90;;;;;;5046560;28;20578;-67
2022/05/30 08:03:01;;;;;;;2.58;0.70;;;11.50;99.90;;;;;;5045949;28;20061;-68
2022/05/30 08:05:27;;;;;;;5.32;1.00;;;11.60;99.90;;;;;;5049926;28;20063;-67
2022/05/30 08:07:52;;;;;;;2.33;0.50;;;11.70;99.90;;;;;;5052450;28;20424;-68
2022/05/30 08:10:20;;;;;;;8.70;0.70;;;11.60;99.90;;;;;;5059866;28;20036;-67
2022/05/30 08:12:49;;;;;;;3.67;0.80;;;11.50;99.90;;;;;;5055774;28;20045;-68
2022/05/30 08:15:16;;;;;;;4.30;0.60;;;11.30;99.90;;;;;;5052479;28;20635;-67
2022/05/30 08:17:42;;;;;;;1.65;0.50;;;11.00;99.90;;;;;;5057432;28;20053;-67
2022/05/30 08:20:11;;;;;;;0.63;0.25;;;10.80;99.90;;;;;;5050600;28;20393;-68
2022/05/30 08:22:37;;;;;;;0.30;0.20;;;10.60;99.90;;;;;;5051102;28;20045;-67
2022/05/30 08:25:08;;;;;;;1.63;0.75;;;10.50;99.90;;;;;;5045468;28;20397;-67
2022/05/30 08:27:33;;;;;;;1.55;0.40;;;10.50;99.90;;;;;;5052120;28;20086;-67
2022/05/30 08:29:59;;;;;;;0.57;0.40;;;10.40;99.90;;;;;;5051186;28;20060;-67
2022/05/30 08:32:35;;;;;;;0.55;0.38;;;10.40;99.90;;;;;;5053026;28;20056;-67
2022/05/30 08:35:03;;;;;;;0.50;0.50;;;10.50;99.90;;;;;;5044436;28;20083;-67
2022/05/30 08:37:30;;;;;;;2.88;0.40;;;10.50;99.90;;;;;;5052377;28;20040;-68
2022/05/30 08:42:55;;;;;;;2.22;0.50;;;10.60;99.90;;;;;;5048008;28;20057;-69
2022/05/30 08:45:22;;;;;;;0.77;0.40;;;10.60;99.90;;;;;;5054826;28;20415;-68
2022/05/30 08:47:54;;;;;;;1.75;0.63;;;10.60;99.90;;;;;;5049024;28;20049;-70
2022/05/30 08:50:39;;;;;;;1.17;0.57;;;10.70;99.90;;;;;;5044479;28;20080;-71
2022/05/30 08:53:42;;;;;;;2.60;1.08;;;10.70;99.90;;;;;;5049264;28;20059;-69
2022/05/30 08:56:21;;;;;;;1.33;0.55;;;10.80;99.90;;;;;;5050413;28;20118;-69
2022/05/30 08:59:00;;;;;;;1.38;0.80;;;10.80;99.90;;;;;;5041522;28;20045;-69
2022/05/30 09:01:39;;;;;;;1.63;0.70;;;10.90;99.90;;;;;;5056050;28;20036;-69
2022/05/30 09:04:19;;;;;;;1.38;0.77;;;11.00;99.90;;;;;;5061881;28;20493;-68
2022/05/30 09:07:05;;;;;;;4.03;0.95;;;11.10;99.90;;;;;;5054857;28;20057;-68
2022/05/30 09:09:56;;;;;;;2.05;1.20;;;11.10;99.90;;;;;;5055465;28;20040;-68
2022/05/30 09:12:27;;;;;;;0.70;0.55;;;11.20;99.90;;;;;;5054087;28;20512;-68
2022/05/30 09:14:58;;;;;;;3.45;0.77;;;11.30;99.90;;;;;;5055338;28;20063;-68
2022/05/30 09:17:32;;;;;;;1.58;0.80;;;11.30;99.90;;;;;;5048629;28;20037;-68
2022/05/30 09:20:01;;;;;;;5.35;1.20;;;11.40;99.90;;;;;;5064711;28;20083;-68
2022/05/30 09:22:27;;;;;;;0.80;0.38;;;11.50;99.90;;;;;;5061734;28;20124;-69
2022/05/30 09:27:38;;;;;;;0.63;0.50;;;11.70;99.90;;;;;;5048229;28;20049;-69
2022/05/30 09:30:07;;;;;;;0.90;0.30;;;11.70;99.90;;;;;;5063759;28;20048;-69
2022/05/30 09:32:43;;;;;;;1.60;0.30;;;11.80;99.90;;;;;;5057497;28;20044;-70
2022/05/30 09:35:29;;;;;;;1.23;0.43;;;11.90;99.90;;;;;;5056030;28;20045;-70
2022/05/30 09:38:29;;;;;;;0.47;0.40;;;12.00;99.90;;;;;;5054006;28;20049;-70
2022/05/30 09:40:59;;;;;;;0.30;0.30;;;12.10;99.90;;;;;;5007378;28;20612;-70
2022/05/30 09:43:39;;;;;;;0.52;0.20;;;12.20;99.90;;;;;;5045664;28;20068;-70
2022/05/30 09:46:22;;;;;;;0.68;0.20;;;12.30;99.90;;;;;;5056093;28;20048;-70
2022/05/30 09:49:09;;;;;;;1.10;0.30;;;11.40;99.90;;;;;;5050986;28;20140;-70
2022/05/30 09:51:35;;;;;;;3.78;0.32;;;12.40;99.90;;;;;;5054985;28;20067;-70
2022/05/30 09:54:01;;;;;;;3.05;0.50;;;12.40;99.90;;;;;;5054554;28;20048;-70
2022/05/30 09:56:29;;;;;;;2.97;0.38;;;12.40;99.90;;;;;;5054841;28;20040;-70
2022/05/30 09:58:59;;;;;;;3.47;0.45;;;12.30;99.90;;;;;;5048100;28;20103;-70
2022/05/30 10:01:26;;;;;;;1.52;0.52;;;12.20;99.90;;;;;;5062292;28;20049;-70
2022/05/30 10:03:56;;;;;;;1.60;0.63;;;12.10;99.90;;;;;;5046160;28;20098;-70
2022/05/30 10:06:25;;;;;;;1.45;0.50;;;12.10;99.90;;;;;;5064182;28;20128;-70
2022/05/30 10:09:12;;;;;;;1.20;0.43;;;12.00;99.90;;;;;;5046432;28;20040;-69
2022/05/30 10:11:38;;;;;;;2.05;0.30;;;11.90;99.90;;;;;;5063347;28;20562;-71
2022/05/30 10:14:18;;;;;;;1.52;0.30;;;11.80;99.90;;;;;;5047950;28;20044;-69
2022/05/30 10:16:45;;;;;;;2.05;0.43;;;11.80;99.90;;;;;;5059766;28;20049;-69
2022/05/30 10:19:24;;;;;;;0.98;0.28;;;11.70;99.90;;;;;;5054650;28;20079;-69
2022/05/30 10:28:36;;;;;;;0.60;0.22;;;11.50;99.90;;;;;;5059202;28;20044;-69
2022/05/30 10:31:16;;;;;;;0.90;0.40;;;11.40;99.90;;;;;;5057108;28;20049;-69
2022/05/30 10:34:20;;;;;;;2.78;0.60;;;11.40;99.90;;;;;;5054401;28;20098;-69
2022/05/30 10:37:13;;;;;;;1.50;0.52;;;11.30;99.90;;;;;;5027478;28;20106;-69
2022/05/30 10:39:46;;;;;;;1.00;0.47;;;11.30;99.90;;;;;;5058718;28;20041;-69
2022/05/30 10:42:28;;;;;;;2.85;0.60;;;11.30;99.90;;;;;;5059080;28;20044;-69
2022/05/30 10:45:10;;;;;;;1.00;0.70;;;11.40;99.90;;;;;;5047651;28;20048;-69
2022/05/30 10:47:39;;;;;;;1.50;0.50;;;11.50;99.90;;;;;;5055203;28;20052;-68
2022/05/30 10:50:23;;;;;;;2.55;0.30;;;11.50;99.90;;;;;;5051504;28;20032;-69
2022/05/30 10:52:51;;;;;;;1.77;0.30;;;11.60;99.90;;;;;;5054084;28;20045;-69
2022/05/30 10:55:35;;;;;;;0.98;0.50;;;11.60;99.90;;;;;;5046730;28;20044;-69
2022/05/30 10:58:17;;;;;;;1.00;0.43;;;11.70;99.90;;;;;;5056885;28;20045;-69
2022/05/30 11:00:54;;;;;;;0.40;0.30;;;11.80;99.90;;;;;;5049094;28;20048;-66
2022/05/30 11:03:47;;;;;;;1.35;0.47;;;11.90;99.90;;;;;;5052483;28;20438;-66
2022/05/30 11:06:12;;;;;;;0.47;0.20;;;11.90;99.90;;;;;;5046638;28;20053;-67
2022/05/30 11:08:59;;;;;;;0.70;0.20;;;12.00;99.90;;;;;;5048288;28;20051;-67
2022/05/30 11:11:44;;;;;;;0.88;0.40;;;12.10;99.90;;;;;;5052492;28;20049;-66
2022/05/30 11:14:32;;;;;;;2.42;0.25;;;12.20;99.90;;;;;;5054217;28;20409;-67
2022/05/30 11:17:24;;;;;;;0.73;0.30;;;12.40;99.90;;;;;;5053069;28;20417;-66
2022/05/30 11:20:01;;;;;;;1.90;0.57;;;12.60;99.90;;;;;;5039544;28;20164;-66
2022/05/30 11:22:40;;;;;;;3.63;0.50;;;12.80;99.90;;;;;;5058875;28;20075;-67
2022/05/30 11:25:09;;;;;;;0.22;0.22;;;12.90;99.90;;;;;;5052061;28;20392;-67
2022/05/30 11:27:47;;;;;;;0.45;0.20;;;12.90;99.90;;;;;;5062286;28;20060;-67
2022/05/30 11:30:48;;;;;;;0.85;0.40;;;12.80;99.90;;;;;;5061858;28;20102;-67
2022/05/30 11:33:20;;;;;;;0.57;0.30;;;12.60;99.90;;;;;;5058443;28;20083;-67
2022/05/30 11:36:03;;;;;;;0.63;0.10;;;12.40;99.90;;;;;;5051989;28;21822;-67
2022/05/30 11:38:54;;;;;;;1.05;0.30;;;12.30;99.90;;;;;;5051137;28;20405;-67
2022/05/30 11:41:34;;;;;;;2.15;0.40;;;12.20;99.90;;;;;;5050901;28;20032;-67
2022/05/30 11:44:15;;;;;;;1.73;0.70;;;12.00;99.90;;;;;;5049435;28;20041;-67
2022/05/30 11:46:54;;;;;;;0.30;0.30;;;11.90;99.90;;;;;;5047121;28;20040;-67
2022/05/30 11:49:34;;;;;;;0.95;0.60;;;11.80;99.90;;;;;;5046260;28;20409;-68
2022/05/30 11:52:17;;;;;;;0.60;0.35;;;11.70;99.90;;;;;;5050491;28;20049;-67
2022/05/30 11:54:48;;;;;;;2.25;0.60;;;11.70;99.90;;;;;;5052922;28;20447;-68
2022/05/30 11:57:39;;;;;;;0.95;0.50;;;11.60;99.90;;;;;;5055431;28;20602;-68
2022/05/30 12:00:14;;;;;;;1.95;0.45;;;11.60;99.90;;;;;;5055670;28;20796;-68
2022/05/30 12:02:56;;;;;;;1.58;0.60;;;11.60;99.90;;;;;;5055043;28;20419;-68
2022/05/30 12:05:40;;;;;;;;;;;11.60;99.90;;;;;;5053179;28;20056;-68
2022/05/30 12:08:37;;;;;;;1.23;0.82;;;11.60;99.90;;;;;;5050255;28;19950;-68
2022/05/30 12:11:31;;;;;;;0.50;0.45;;;11.70;99.90;;;;;;5048277;28;20132;-68
2022/05/30 12:14:15;;;;;;;0.20;0.20;;;11.80;99.90;;;;;;5056810;28;20489;-68
2022/05/30 12:17:17;;;;;;;1.30;0.28;;;11.90;99.90;;;;;;5048446;28;20055;-68
2022/05/30 12:25:35;;;;;;;0.50;0.28;;;11.90;99.90;;;;;;5049896;28;20036;-68
2022/05/30 12:28:27;;;;;;;1.25;0.30;;;11.80;99.90;;;;;;5050033;28;20568;-68
2022/05/30 12:31:02;;;;;;;1.27;0.60;;;11.70;99.90;;;;;;5026705;28;20057;-68
2022/05/30 12:33:31;;;;;;;2.53;0.60;;;11.60;99.90;;;;;;5039500;28;20060;-67
2022/05/30 12:36:08;;;;;;;2.40;0.68;;;11.50;99.90;;;;;;5045157;28;20491;-68
2022/05/30 12:38:55;;;;;;;4.43;1.08;;;11.50;99.90;;;;;;5053832;28;20083;-68
2022/05/30 12:41:31;;;;;;;1.45;0.65;;;11.40;99.90;;;;;;5044729;28;20496;-67
2022/05/30 12:43:58;;;;;;;2.38;0.52;;;11.30;99.90;;;;;;5045341;28;20041;-67
2022/05/30 12:46:29;;;;;;;0.73;0.40;;;11.30;99.90;;;;;;5053353;28;20606;-68
2022/05/30 12:49:30;;;;;;;2.63;0.70;;;11.30;99.90;;;;;;5047071;28;20511;-68
2022/05/30 12:52:02;;;;;;;1.85;0.60;;;11.30;99.90;;;;;;5046500;28;20493;-68
2022/05/30 12:54:43;;;;;;;1.38;0.35;;;11.30;99.90;;;;;;5048164;28;20041;-68
2022/05/30 12:57:30;;;;;;;2.38;0.45;;;11.20;99.90;;;;;;5047625;28;20098;-67
2022/05/30 13:00:15;;;;;;;0.80;0.60;;;11.20;99.90;;;;;;5055094;28;20075;-68
2022/05/30 13:03:12;;;;;;;1.67;0.75;;;11.10;99.90;;;;;;5047208;28;20045;-68
2022/05/30 13:05:41;;;;;;;0.45;0.40;;;11.10;99.90;;;;;;5046078;28;20053;-67
2022/05/30 13:08:44;;;;;;;1.65;0.60;;;11.00;99.90;;;;;;5049698;28;20445;-65
2022/05/30 13:11:32;;;;;;;1.55;0.57;;;11.00;99.90;;;;;;5049550;28;20041;-66
2022/05/30 13:14:09;;;;;;;2.10;0.85;;;11.00;99.90;;;;;;5051444;28;20182;-66
2022/05/30 13:16:40;;;;;;;2.63;0.98;;;11.00;99.90;;;;;;5051526;28;20063;-65
2022/05/30 13:19:10;;;;;;;1.42;0.60;;;11.10;99.90;;;;;;5048383;28;20092;-65
2022/05/30 13:21:40;;;;;;;3.03;0.95;;;11.20;99.90;;;;;;5048494;28;20049;-66
2022/05/30 13:24:24;;;;;;;1.05;0.50;;;11.20;99.90;;;;;;5048315;28;20307;-66
2022/05/30 13:26:50;;;;;;;2.50;0.80;;;11.30;99.90;;;;;;5045924;28;20048;-67
2022/05/30 13:29:15;;;;;;;7.40;0.80;;;11.60;99.90;;;;;;5050768;28;20041;-66
2022/05/30 13:31:41;;;;;;;1.65;0.98;;;11.80;99.90;;;;;;5050424;28;20134;-66
2022/05/30 13:34:07;;;;;;;4.10;0.88;;;12.10;99.90;;;;;;5053621;28;20088;-66
2022/05/30 13:36:34;;;;;;;1.75;0.60;;;12.20;99.90;;;;;;5048718;28;20040;-66